createdAt,value
2023-01-04T00:01:24.210Z,102105.00
2023-01-04T00:03:51.458Z,102093.47
2023-01-04T00:06:19.118Z,102093.75
2023-01-04T00:08:45.777Z,102089.44
2023-01-04T00:11:14.796Z,102087.56
2023-01-04T00:13:41.565Z,102082.47
2023-01-04T00:16:11.676Z,102079.00
2023-01-04T00:18:38.390Z,102073.09
2023-01-04T00:21:13.325Z,102068.28
2023-01-04T00:23:41.373Z,102062.63
2023-01-04T00:26:30.912Z,102056.22
2023-01-04T00:28:59.458Z,102050.31
2023-01-04T00:31:26.283Z,102048.44
2023-01-04T00:33:57.947Z,102037.16
2023-01-04T00:36:25.416Z,102029.66
2023-01-04T00:39:07.665Z,102025.91
2023-01-04T00:41:58.815Z,102022.72
2023-01-04T00:44:26.538Z,102018.94
2023-01-04T00:46:53.324Z,102014.41
2023-01-04T00:49:19.939Z,102014.38
2023-01-04T00:51:46.453Z,102013.28
2023-01-04T00:54:14.421Z,102007.16
2023-01-04T00:56:41.213Z,101990.22
2023-01-04T00:59:07.772Z,101989.97
2023-01-04T01:01:35.133Z,101988.13
2023-01-04T01:04:03.806Z,101976.56
2023-01-04T01:06:31.579Z,101983.00
2023-01-04T01:08:58.461Z,101980.84
2023-01-04T01:11:25.414Z,101977.91
2023-01-04T01:13:52.262Z,101982.75
2023-01-04T01:16:44.411Z,101987.84
2023-01-04T01:19:07.975Z,101980.56
2023-01-04T01:21:34.792Z,101979.47
2023-01-04T01:24:01.381Z,101977.84
2023-01-04T01:26:28.051Z,101985.66
2023-01-04T01:28:54.581Z,101982.41
2023-01-04T01:31:25.503Z,101986.69
2023-01-04T01:33:53.907Z,101987.81
2023-01-04T01:36:21.684Z,101991.28
2023-01-04T01:38:48.857Z,101978.16
2023-01-04T01:41:29.940Z,101975.19
2023-01-04T01:44:02.750Z,101976.81
2023-01-04T01:46:36.436Z,101974.34
2023-01-04T01:49:25.727Z,101972.78
2023-01-04T01:51:53.423Z,101968.53
2023-01-04T01:54:38.689Z,101974.41
2023-01-04T01:57:07.905Z,101970.97
2023-01-04T01:59:36.120Z,101963.41
2023-01-04T02:02:03.023Z,101969.28
2023-01-04T02:04:29.799Z,101963.66
2023-01-04T02:06:58.893Z,101954.06
2023-01-04T02:09:25.892Z,101944.91
2023-01-04T02:11:52.549Z,101943.84
2023-01-04T02:14:28.523Z,101929.84
2023-01-04T02:17:17.568Z,101912.03
2023-01-04T02:20:00.569Z,101906.69
2023-01-04T02:23:08.288Z,101887.97
2023-01-04T02:25:53.813Z,101868.91
2023-01-04T02:28:50.540Z,101868.34
2023-01-04T02:32:02.166Z,101859.78
2023-01-04T02:34:54.840Z,101858.66
2023-01-04T02:37:36.422Z,101857.09
2023-01-04T02:40:14.854Z,101842.69
2023-01-04T02:43:13.817Z,101841.25
2023-01-04T02:45:50.400Z,101834.03
2023-01-04T02:48:35.736Z,101823.81
2023-01-04T02:51:02.413Z,101830.84
2023-01-04T02:53:32.023Z,101841.00
2023-01-04T02:56:35.549Z,101840.25
2023-01-04T02:59:19.853Z,101837.28
2023-01-04T03:02:30.122Z,101827.06
2023-01-04T03:05:15.475Z,101824.91
2023-01-04T03:08:17.955Z,101810.19
2023-01-04T03:10:53.265Z,101806.16
2023-01-04T03:13:26.242Z,101805.94
2023-01-04T03:15:55.667Z,101803.47
2023-01-04T03:18:31.700Z,101795.53
2023-01-04T03:20:59.569Z,101793.84
2023-01-04T03:23:46.777Z,101792.75
2023-01-04T03:26:39.242Z,101782.00
2023-01-04T03:29:43.099Z,101782.31
2023-01-04T03:32:33.622Z,101765.41
2023-01-04T03:35:19.014Z,101761.63
2023-01-04T03:38:13.150Z,101755.28
2023-01-04T03:41:00.137Z,101749.59
2023-01-04T03:43:52.861Z,101747.22
2023-01-04T03:46:47.131Z,101741.00
2023-01-04T03:49:17.091Z,101718.75
2023-01-04T03:51:44.500Z,101725.41
2023-01-04T03:54:19.075Z,101723.00
2023-01-04T03:56:46.496Z,101709.84
2023-01-04T03:59:13.446Z,101716.06
2023-01-04T04:01:42.005Z,101700.78
2023-01-04T04:04:27.304Z,101707.16
2023-01-04T04:07:12.789Z,101702.53
2023-01-04T04:09:39.378Z,101694.44
2023-01-04T04:12:05.984Z,101683.22
2023-01-04T04:14:32.550Z,101681.63
2023-01-04T04:16:59.216Z,101673.63
2023-01-04T04:19:25.848Z,101665.28
2023-01-04T04:21:52.506Z,101666.88
2023-01-04T04:24:28.062Z,101664.22
2023-01-04T04:26:55.708Z,101655.28
2023-01-04T04:29:23.496Z,101646.72
2023-01-04T04:31:50.414Z,101643.97
2023-01-04T04:34:16.960Z,101648.66
2023-01-04T04:36:43.469Z,101637.84
2023-01-04T04:39:11.195Z,101634.84
2023-01-04T04:41:38.791Z,101625.16
2023-01-04T04:44:14.988Z,101613.88
2023-01-04T04:46:41.936Z,101608.53
2023-01-04T04:49:08.873Z,101604.16
2023-01-04T04:51:36.027Z,101593.47
2023-01-04T04:54:04.095Z,101585.25
2023-01-04T04:56:30.591Z,101582.00
2023-01-04T04:58:57.238Z,101577.72
2023-01-04T05:01:23.915Z,101571.31
2023-01-04T05:03:50.571Z,101563.56
2023-01-04T05:06:17.109Z,101559.47
2023-01-04T05:08:43.666Z,101555.69
2023-01-04T05:11:11.579Z,101553.19
2023-01-04T05:13:38.136Z,101551.28
2023-01-04T05:16:05.547Z,101550.78
2023-01-04T05:18:32.365Z,101525.97
2023-01-04T05:20:58.933Z,101523.22
2023-01-04T05:23:25.779Z,101506.91
2023-01-04T05:25:55.400Z,101509.72
2023-01-04T05:28:22.125Z,101508.88
2023-01-04T05:30:53.656Z,101487.69
2023-01-04T05:33:25.506Z,101479.50
2023-01-04T05:35:53.437Z,101481.44
2023-01-04T05:38:20.680Z,101466.78
2023-01-04T05:40:47.670Z,101463.69
2023-01-04T05:43:14.599Z,101461.41
2023-01-04T05:45:43.315Z,101446.50
2023-01-04T05:48:09.824Z,101449.03
2023-01-04T05:50:36.529Z,101437.66
2023-01-04T05:53:05.005Z,101431.97
2023-01-04T05:55:31.692Z,101436.09
2023-01-04T05:57:58.187Z,101419.91
2023-01-04T06:00:24.800Z,101418.75
2023-01-04T06:02:52.646Z,101431.25
2023-01-04T06:05:19.357Z,101413.38
2023-01-04T06:07:45.882Z,101423.53
2023-01-04T06:10:13.401Z,101409.38
2023-01-04T06:12:40.355Z,101400.47
2023-01-04T06:15:07.903Z,101395.03
2023-01-04T06:17:35.180Z,101398.44
2023-01-04T06:20:02.277Z,101386.53
2023-01-04T06:22:29.082Z,101386.97
2023-01-04T06:24:55.860Z,101373.63
2023-01-04T06:27:22.328Z,101369.84
2023-01-04T06:29:48.883Z,101368.59
2023-01-04T06:32:15.463Z,101373.63
2023-01-04T06:34:41.951Z,101371.63
2023-01-04T06:37:09.818Z,101359.09
2023-01-04T06:39:37.343Z,101360.13
2023-01-04T06:42:06.928Z,101347.69
2023-01-04T06:44:33.951Z,101349.19
2023-01-04T06:47:00.635Z,101339.63
2023-01-04T06:49:27.186Z,101331.09
2023-01-04T06:51:53.806Z,101333.09
2023-01-04T06:54:20.406Z,101319.38
2023-01-04T06:56:46.912Z,101314.41
2023-01-04T06:59:13.436Z,101309.31
2023-01-04T07:01:40.081Z,101311.13
2023-01-04T07:04:07.087Z,101312.63
2023-01-04T07:06:33.579Z,101305.84
2023-01-04T07:09:00.114Z,101299.09
2023-01-04T07:11:26.639Z,101297.50
2023-01-04T07:13:53.251Z,101298.00
2023-01-04T07:16:20.222Z,101288.34
2023-01-04T07:18:46.753Z,101275.59
2023-01-04T07:21:13.438Z,101270.84
2023-01-04T07:23:40.148Z,101273.81
2023-01-04T07:26:06.662Z,101265.97
2023-01-04T07:28:51.824Z,101256.59
2023-01-04T07:31:18.411Z,101267.97
2023-01-04T07:33:44.998Z,101255.31
2023-01-04T07:36:11.589Z,101252.31
2023-01-04T07:38:38.088Z,101245.75
2023-01-04T07:41:04.828Z,101245.63
2023-01-04T07:43:31.398Z,101240.06
2023-01-04T07:45:58.028Z,101233.03
2023-01-04T07:48:24.640Z,101230.81
2023-01-04T07:50:51.199Z,101224.16
2023-01-04T07:53:18.754Z,101226.47
2023-01-04T07:55:45.341Z,101228.03
2023-01-04T07:58:11.961Z,101208.38
2023-01-04T08:00:38.557Z,101204.97
2023-01-04T08:03:05.524Z,101194.25
2023-01-04T08:05:33.112Z,101177.56
2023-01-04T08:07:59.697Z,101190.97
2023-01-04T08:10:26.314Z,101181.00
2023-01-04T08:12:52.843Z,101172.56
2023-01-04T08:15:19.649Z,101169.69
2023-01-04T08:17:46.211Z,101148.91
2023-01-04T08:20:12.757Z,101147.13
2023-01-04T08:22:39.435Z,101151.19
2023-01-04T08:25:07.036Z,101148.72
2023-01-04T08:27:33.567Z,101152.66
2023-01-04T08:30:00.162Z,101154.34
2023-01-04T08:32:27.016Z,101153.66
2023-01-04T08:34:54.297Z,101147.88
2023-01-04T08:37:21.047Z,101145.19
2023-01-04T08:39:49.601Z,101135.53
2023-01-04T08:42:24.851Z,101131.47
2023-01-04T08:44:59.211Z,101136.16
2023-01-04T08:47:26.274Z,101137.81
2023-01-04T08:49:52.798Z,101139.09
2023-01-04T08:52:19.378Z,101132.75
2023-01-04T08:54:45.947Z,101126.16
2023-01-04T08:57:12.475Z,101120.78
2023-01-04T08:59:39.020Z,101143.06
2023-01-04T09:02:14.327Z,101132.94
2023-01-04T09:04:40.944Z,101130.56
2023-01-04T09:07:07.464Z,101129.75
2023-01-04T09:09:33.982Z,101136.72
2023-01-04T09:12:00.502Z,101129.13
2023-01-04T09:14:27.027Z,101136.22
2023-01-04T09:16:53.539Z,101131.22
2023-01-04T09:19:22.410Z,101114.38
2023-01-04T09:21:49.410Z,101117.25
2023-01-04T09:24:15.957Z,101118.97
2023-01-04T09:26:42.517Z,101115.00
2023-01-04T09:29:10.781Z,101106.94
2023-01-04T09:31:37.412Z,101093.50
2023-01-04T09:34:14.233Z,101090.50
2023-01-04T09:36:42.281Z,101080.53
2023-01-04T09:39:13.240Z,101091.00
2023-01-04T09:41:49.954Z,101078.41
2023-01-04T09:45:03.258Z,101074.94
2023-01-04T09:47:34.190Z,101059.44
2023-01-04T09:50:23.109Z,101055.81
2023-01-04T09:53:11.297Z,101055.75
2023-01-04T09:55:45.848Z,101058.63
2023-01-04T09:58:31.032Z,101048.53
2023-01-04T10:01:06.109Z,101043.03
2023-01-04T10:03:38.765Z,101032.47
2023-01-04T10:06:15.730Z,101028.34
2023-01-04T10:08:43.066Z,101024.88
2023-01-04T10:11:09.598Z,101026.00
2023-01-04T10:13:41.979Z,101017.13
2023-01-04T10:16:17.644Z,101000.69
2023-01-04T10:19:59.701Z,100989.19
2023-01-04T10:22:04.202Z,100984.13
2023-01-04T10:24:54.954Z,100985.22
2023-01-04T10:27:42.684Z,100975.69
2023-01-04T10:30:28.420Z,100962.59
2023-01-04T10:33:11.723Z,100989.97
2023-01-04T10:35:40.811Z,100962.94
2023-01-04T10:38:15.538Z,100960.41
2023-01-04T10:40:42.402Z,100944.75
2023-01-04T10:44:11.887Z,100941.59
2023-01-04T10:46:40.884Z,100933.06
2023-01-04T10:49:12.646Z,100935.75
2023-01-04T10:51:48.120Z,100932.16
2023-01-04T10:54:42.128Z,100915.84
2023-01-04T10:57:20.925Z,100912.06
2023-01-04T10:59:57.360Z,100915.69
2023-01-04T11:02:35.141Z,100900.84
2023-01-04T11:05:19.405Z,100901.31
2023-01-04T11:07:52.411Z,100889.13
2023-01-04T11:10:31.545Z,100883.78
2023-01-04T11:12:58.159Z,100879.50
2023-01-04T11:15:24.796Z,100882.53
2023-01-04T11:17:51.956Z,100878.41
2023-01-04T11:20:18.534Z,100872.41
2023-01-04T11:23:04.160Z,100873.34
2023-01-04T11:25:38.503Z,100886.63
2023-01-04T11:28:31.427Z,100866.53
2023-01-04T11:31:14.384Z,100867.66
2023-01-04T11:34:01.939Z,100862.41
2023-01-04T11:36:31.345Z,100860.84
2023-01-04T11:38:58.241Z,100855.59
2023-01-04T11:41:25.779Z,100842.31
2023-01-04T11:44:01.547Z,100846.75
2023-01-04T11:46:29.127Z,100834.22
2023-01-04T11:48:55.772Z,100848.66
2023-01-04T11:51:31.629Z,100829.47
2023-01-04T11:54:00.263Z,100825.22
2023-01-04T11:56:29.424Z,100815.88
2023-01-04T11:59:05.177Z,100824.25
2023-01-04T12:01:34.402Z,100803.84
2023-01-04T12:04:01.225Z,100797.03
2023-01-04T12:06:39.324Z,100795.88
2023-01-04T12:09:05.891Z,100794.91
2023-01-04T12:11:36.542Z,100792.38
2023-01-04T12:14:03.635Z,100774.63
2023-01-04T12:16:41.837Z,100780.81
2023-01-04T12:19:16.457Z,100777.97
2023-01-04T12:21:49.026Z,100779.38
2023-01-04T12:24:19.442Z,100775.06
2023-01-04T12:26:46.221Z,100775.56
2023-01-04T12:29:22.431Z,100773.34
2023-01-04T12:31:50.040Z,100769.56
2023-01-04T12:34:22.341Z,100757.22
2023-01-04T12:37:04.548Z,100759.59
2023-01-04T12:39:39.012Z,100755.91
2023-01-04T12:42:26.994Z,100753.72
2023-01-04T12:44:53.386Z,100746.38
2023-01-04T12:47:38.649Z,100746.72
2023-01-04T12:50:14.044Z,100741.31
2023-01-04T12:53:28.280Z,100737.38
2023-01-04T12:55:54.195Z,100728.88
2023-01-04T12:58:58.261Z,100738.38
2023-01-04T13:01:25.783Z,100733.44
2023-01-04T13:04:02.502Z,100726.47
2023-01-04T13:06:33.552Z,100734.72
2023-01-04T13:09:01.210Z,100734.53
2023-01-04T13:11:52.691Z,100719.38
2023-01-04T13:14:30.236Z,100713.63
2023-01-04T13:17:10.888Z,100709.69
2023-01-04T13:19:38.837Z,100710.16
2023-01-04T13:22:10.906Z,100707.44
2023-01-04T13:24:38.999Z,100695.78
2023-01-04T13:27:13.525Z,100692.41
2023-01-04T13:29:40.822Z,100687.47
2023-01-04T13:33:24.452Z,100682.06
2023-01-04T13:35:35.170Z,100677.94
2023-01-04T13:38:01.749Z,100689.97
2023-01-04T13:40:34.392Z,100677.94
2023-01-04T13:43:16.098Z,100661.34
2023-01-04T13:45:50.376Z,100675.13
2023-01-04T13:48:21.046Z,100685.22
2023-01-04T13:51:29.072Z,100663.69
2023-01-04T13:54:00.033Z,100664.81
2023-01-04T13:56:28.871Z,100665.06
2023-01-04T13:58:55.726Z,100674.47
2023-01-04T14:01:30.496Z,100658.56
2023-01-04T14:04:11.628Z,100652.59
2023-01-04T14:06:44.705Z,100664.44
2023-01-04T14:09:11.107Z,100658.25
2023-01-04T14:12:05.634Z,100646.03
2023-01-04T14:14:55.794Z,100662.63
2023-01-04T14:17:23.788Z,100657.53
2023-01-04T14:19:50.254Z,100652.72
2023-01-04T14:22:22.952Z,100648.97
2023-01-04T14:27:42.806Z,100647.91
2023-01-04T14:30:18.309Z,100636.50
2023-01-04T14:33:13.541Z,100639.75
2023-01-04T14:35:46.322Z,100612.72
2023-01-04T14:38:19.240Z,100624.94
2023-01-04T14:40:46.241Z,100619.94
2023-01-04T14:43:34.645Z,100632.28
2023-01-04T14:46:01.463Z,100630.97
2023-01-04T14:48:31.368Z,100621.56
2023-01-04T14:50:59.026Z,100627.16
2023-01-04T14:53:25.755Z,100617.16
2023-01-04T14:55:54.652Z,100624.59
2023-01-04T14:58:21.824Z,100604.53
2023-01-04T15:00:48.845Z,100606.53
2023-01-04T15:03:15.856Z,100611.63
2023-01-04T15:05:46.734Z,100605.66
2023-01-04T15:08:14.268Z,100600.06
2023-01-04T15:10:40.844Z,100588.59
2023-01-04T15:13:07.520Z,100595.06
2023-01-04T15:15:34.206Z,100581.88
2023-01-04T15:18:00.839Z,100576.16
2023-01-04T15:20:27.402Z,100586.16
2023-01-04T15:22:53.966Z,100582.47
2023-01-04T15:25:20.511Z,100584.50
2023-01-04T15:27:47.069Z,100577.09
2023-01-04T15:30:14.075Z,100589.13
2023-01-04T15:32:41.392Z,100582.72
2023-01-04T15:35:08.311Z,100574.03
2023-01-04T15:37:34.849Z,100586.88
2023-01-04T15:40:03.160Z,100569.13
2023-01-04T15:42:48.721Z,100565.09
2023-01-04T15:45:15.432Z,100568.22
2023-01-04T15:47:41.957Z,100559.91
2023-01-04T15:50:08.929Z,100563.09
2023-01-04T15:52:35.541Z,100547.66
2023-01-04T15:55:02.100Z,100558.34
2023-01-04T15:57:28.709Z,100557.00
2023-01-04T15:59:55.304Z,100546.19
2023-01-04T16:02:22.294Z,100537.44
2023-01-04T16:04:49.582Z,100530.25
2023-01-04T16:07:16.604Z,100528.44
2023-01-04T16:09:43.223Z,100528.88
2023-01-04T16:12:28.142Z,100529.13
2023-01-04T16:14:54.648Z,100522.81
2023-01-04T16:17:21.251Z,100522.59
2023-01-04T16:19:47.813Z,100498.19
2023-01-04T16:22:14.290Z,100514.50
2023-01-04T16:27:33.134Z,100496.03
2023-01-04T16:30:02.610Z,100494.34
2023-01-04T16:32:29.188Z,100491.44
2023-01-04T16:34:55.723Z,100497.84
2023-01-04T16:37:26.853Z,100504.69
2023-01-04T16:40:09.524Z,100498.19
2023-01-04T16:42:37.512Z,100477.94
2023-01-04T16:45:04.530Z,100466.09
2023-01-04T16:47:39.086Z,100471.72
2023-01-04T16:50:06.657Z,100462.31
2023-01-04T16:52:33.323Z,100441.56
2023-01-04T16:55:00.099Z,100458.00
2023-01-04T16:57:26.725Z,100451.13
2023-01-04T16:59:53.348Z,100442.09
2023-01-04T17:02:20.313Z,100438.59
2023-01-04T17:04:52.830Z,100453.31
2023-01-04T17:07:19.453Z,100442.81
2023-01-04T17:09:46.694Z,100443.00
2023-01-04T17:15:40.691Z,100433.34
2023-01-04T17:17:46.403Z,100446.84
2023-01-04T17:20:12.906Z,100439.03
2023-01-04T17:22:40.520Z,100426.50
2023-01-04T17:25:07.555Z,100429.19
2023-01-04T17:27:35.099Z,100412.97
2023-01-04T17:30:01.676Z,100419.44
2023-01-04T17:32:28.273Z,100421.50
2023-01-04T17:34:54.790Z,100409.47
2023-01-04T17:37:21.317Z,100410.53
2023-01-04T17:39:48.284Z,100400.69
2023-01-04T17:42:14.824Z,100379.16
2023-01-04T17:44:41.362Z,100391.66
2023-01-04T17:47:08.013Z,100382.41
2023-01-04T17:49:34.549Z,100387.81
2023-01-04T17:52:01.263Z,100392.84
2023-01-04T17:54:27.914Z,100384.75
2023-01-04T17:56:54.510Z,100371.69
2023-01-04T17:59:21.005Z,100394.19
2023-01-04T18:01:47.736Z,100385.09
2023-01-04T18:04:14.411Z,100379.34
2023-01-04T18:06:40.990Z,100362.59
2023-01-04T18:09:08.943Z,100378.13
2023-01-04T18:11:35.956Z,100365.75
2023-01-04T18:14:05.911Z,100385.53
2023-01-04T18:16:56.508Z,100376.66
2023-01-04T18:19:29.408Z,100382.66
2023-01-04T18:21:56.597Z,100364.00
2023-01-04T18:24:39.158Z,100382.13
2023-01-04T18:27:25.136Z,100390.88
2023-01-04T18:29:53.696Z,100377.84
2023-01-04T18:32:21.661Z,100370.78
2023-01-04T18:34:48.234Z,100387.97
2023-01-04T18:37:16.061Z,100375.22
2023-01-04T18:39:42.888Z,100373.16
2023-01-04T18:42:09.459Z,100384.56
2023-01-04T18:44:37.078Z,100373.81
2023-01-04T18:47:06.363Z,100350.63
2023-01-04T18:49:32.874Z,100367.81
2023-01-04T18:51:59.380Z,100357.06
2023-01-04T18:54:25.945Z,100362.06
2023-01-04T18:56:57.273Z,100347.81
2023-01-04T18:59:28.668Z,100372.16
2023-01-04T19:02:00.536Z,100349.38
2023-01-04T19:04:28.387Z,100339.00
2023-01-04T19:06:55.324Z,100331.53
2023-01-04T19:09:21.879Z,100335.63
2023-01-04T19:11:48.396Z,100342.25
2023-01-04T19:14:15.245Z,100350.53
2023-01-04T19:16:42.085Z,100349.22
2023-01-04T19:19:09.655Z,100340.16
2023-01-04T19:21:37.741Z,100339.00
2023-01-04T19:24:04.618Z,100341.28
2023-01-04T19:26:31.121Z,100335.50
2023-01-04T19:28:57.719Z,100336.81
2023-01-04T19:31:24.276Z,100339.97
2023-01-04T19:33:50.798Z,100321.03
2023-01-04T19:36:18.292Z,100319.88
2023-01-04T19:38:44.923Z,100330.69
2023-01-04T19:41:25.277Z,100313.66
2023-01-04T19:43:55.759Z,100316.75
2023-01-04T19:46:22.331Z,100321.44
2023-01-04T19:48:48.947Z,100313.38
2023-01-04T19:51:16.471Z,100315.75
2023-01-04T19:53:44.289Z,100311.19
2023-01-04T19:56:12.256Z,100315.81
2023-01-04T19:58:38.897Z,100303.91
2023-01-04T20:01:06.220Z,100311.34
2023-01-04T20:03:33.181Z,100301.66
2023-01-04T20:06:04.638Z,100297.47
2023-01-04T20:08:31.565Z,100304.09
2023-01-04T20:10:59.526Z,100298.16
2023-01-04T20:13:26.813Z,100295.44
2023-01-04T20:15:53.406Z,100293.97
2023-01-04T20:18:20.521Z,100290.03
2023-01-04T20:20:47.163Z,100284.63
2023-01-04T20:23:14.616Z,100296.78
2023-01-04T20:25:46.675Z,100297.06
2023-01-04T20:28:14.110Z,100292.75
2023-01-04T20:30:41.021Z,100297.88
2023-01-04T20:33:08.146Z,100291.03
2023-01-04T20:35:38.503Z,100279.72
2023-01-04T20:38:05.105Z,100286.63
2023-01-04T20:40:31.633Z,100286.19
2023-01-04T20:43:16.636Z,100291.66
2023-01-04T20:45:47.066Z,100301.72
2023-01-04T20:48:14.696Z,100307.91
2023-01-04T20:50:41.692Z,100291.66
2023-01-04T20:53:08.416Z,100259.41
2023-01-04T20:55:41.876Z,100269.38
2023-01-04T20:58:13.745Z,100267.13
2023-01-04T21:00:41.074Z,100279.50
2023-01-04T21:03:09.793Z,100271.88
2023-01-04T21:05:41.924Z,100272.22
2023-01-04T21:08:09.501Z,100275.72
2023-01-04T21:10:36.547Z,100275.31
2023-01-04T21:13:03.872Z,100272.38
2023-01-04T21:15:30.648Z,100274.50
2023-01-04T21:17:57.250Z,100268.81
2023-01-04T21:20:24.590Z,100265.81
2023-01-04T21:22:51.155Z,100266.22
2023-01-04T21:25:17.838Z,100256.81
2023-01-04T21:27:44.695Z,100251.84
2023-01-04T21:30:11.935Z,100250.25
2023-01-04T21:32:38.518Z,100252.97
2023-01-04T21:35:05.568Z,100254.97
2023-01-04T21:37:32.251Z,100270.06
2023-01-04T21:39:58.827Z,100275.00
2023-01-04T21:42:25.352Z,100277.16
2023-01-04T21:44:51.895Z,100269.66
2023-01-04T21:47:18.420Z,100268.25
2023-01-04T21:49:45.672Z,100272.38
2023-01-04T21:52:12.168Z,100276.66
2023-01-04T21:54:39.082Z,100278.31
2023-01-04T21:57:08.082Z,100268.19
2023-01-04T21:59:35.864Z,100275.88
2023-01-04T22:02:02.636Z,100274.41
2023-01-04T22:04:29.427Z,100264.69
2023-01-04T22:06:55.964Z,100264.22
2023-01-04T22:09:22.588Z,100274.59
2023-01-04T22:11:50.212Z,100259.50
2023-01-04T22:14:17.944Z,100248.59
2023-01-04T22:16:44.568Z,100258.72
2023-01-04T22:19:12.700Z,100257.25
2023-01-04T22:21:39.807Z,100247.75
2023-01-04T22:24:06.823Z,100241.56
2023-01-04T22:26:34.281Z,100234.78
2023-01-04T22:29:00.931Z,100252.03
2023-01-04T22:31:27.541Z,100257.81
2023-01-04T22:33:54.083Z,100275.06
2023-01-04T22:36:23.248Z,100270.13
2023-01-04T22:38:51.653Z,100270.63
2023-01-04T22:41:21.120Z,100269.75
2023-01-04T22:43:48.019Z,100267.56
2023-01-04T22:46:17.544Z,100274.88
2023-01-04T22:48:44.814Z,100280.75
2023-01-04T22:51:13.682Z,100279.94
2023-01-04T22:53:40.760Z,100278.81
2023-01-04T22:56:18.831Z,100279.59
2023-01-04T22:58:52.425Z,100274.19
2023-01-04T23:01:20.930Z,100276.09
2023-01-04T23:03:48.504Z,100269.22
2023-01-04T23:06:15.407Z,100271.16
2023-01-04T23:08:41.906Z,100267.81
2023-01-04T23:11:16.554Z,100254.72
2023-01-04T23:13:43.094Z,100252.38
2023-01-04T23:16:12.742Z,100261.09
2023-01-04T23:18:40.002Z,100250.81
2023-01-04T23:21:07.199Z,100246.09
2023-01-04T23:23:33.933Z,100249.53
2023-01-04T23:26:14.250Z,100242.09
2023-01-04T23:28:40.862Z,100247.00
2023-01-04T23:31:09.474Z,100245.34
2023-01-04T23:33:37.099Z,100243.19
2023-01-04T23:36:14.923Z,100255.53
2023-01-04T23:38:42.355Z,100254.59
2023-01-04T23:41:10.010Z,100248.13
2023-01-04T23:43:38.046Z,100243.38
2023-01-04T23:48:35.727Z,100245.88
2023-01-04T23:51:02.346Z,100254.00
2023-01-04T23:53:29.171Z,100244.59
2023-01-04T23:56:06.717Z,100250.09
2023-01-04T23:58:34.053Z,100250.72
